sensor_id;sensor_type;location;lat;lon;timestamp;temperature;humidity
24085;DHT22;12268;52.110;5.548;2023-04-24T03:55:01;13.10;99.90
24085;DHT22;12268;52.110;5.548;2023-04-24T03:57:26;13.10;99.90
24085;DHT22;12268;52.110;5.548;2023-04-24T03:59:52;13.10;99.90
24085;DHT22;12268;52.110;5.548;2023-04-24T04:02:18;13.00;99.90
24085;DHT22;12268;52.110;5.548;2023-04-24T04:04:44;13.00;99.90
24085;DHT22;12268;52.110;5.548;2023-04-24T04:07:09;13.00;99.90
24085;DHT22;12268;52.110;5.548;2023-04-24T04:09:36;12.90;99.90
24085;DHT22;12268;52.110;5.548;2023-04-24T04:12:02;13.00;99.90
24085;DHT22;12268;52.110;5.548;2023-04-24T04:14:28;13.10;99.90
24085;DHT22;12268;52.110;5.548;2023-04-24T04:16:53;13.10;99.90
24085;DHT22;12268;52.110;5.548;2023-04-24T04:19:19;13.10;99.90
24085;DHT22;12268;52.110;5.548;2023-04-24T04:21:45;13.20;99.90
24085;DHT22;12268;52.110;5.548;2023-04-24T04:24:11;13.20;99.90
24085;DHT22;12268;52.110;5.548;2023-04-24T04:26:37;13.20;99.90
24085;DHT22;12268;52.110;5.548;2023-04-24T04:29:03;13.20;99.90
24085;DHT22;12268;52.110;5.548;2023-04-24T04:31:29;13.20;99.90
24085;DHT22;12268;52.110;5.548;2023-04-24T04:33:55;13.30;99.90
24085;DHT22;12268;52.110;5.548;2023-04-24T04:36:20;13.40;99.90
24085;DHT22;12268;52.110;5.548;2023-04-24T04:38:46;13.40;99.90
24085;DHT22;12268;52.110;5.548;2023-04-24T04:41:11;13.40;99.90
24085;DHT22;12268;52.110;5.548;2023-04-24T04:43:37;13.30;99.90
24085;DHT22;12268;52.110;5.548;2023-04-24T04:46:04;13.40;99.90
24085;DHT22;12268;52.110;5.548;2023-04-24T04:48:30;13.20;99.90
24085;DHT22;12268;52.110;5.548;2023-04-24T04:50:57;13.60;99.90
24085;DHT22;12268;52.110;5.548;2023-04-24T04:53:23;13.70;99.90
24085;DHT22;12268;52.110;5.548;2023-04-24T04:55:48;13.50;99.90
24085;DHT22;12268;52.110;5.548;2023-04-24T04:58:14;13.50;99.90
24085;DHT22;12268;52.110;5.548;2023-04-24T05:00:39;13.70;99.90
24085;DHT22;12268;52.110;5.548;2023-04-24T05:03:05;13.80;99.90
24085;DHT22;12268;52.110;5.548;2023-04-24T05:05:31;14.10;99.90
24085;DHT22;12268;52.110;5.548;2023-04-24T05:07:56;13.90;99.90
24085;DHT22;12268;52.110;5.548;2023-04-24T05:10:22;13.70;99.90
24085;DHT22;12268;52.110;5.548;2023-04-24T05:12:47;13.70;99.90
24085;DHT22;12268;52.110;5.548;2023-04-24T05:15:14;13.80;99.90
24085;DHT22;12268;52.110;5.548;2023-04-24T05:17:40;13.90;99.90
24085;DHT22;12268;52.110;5.548;2023-04-24T05:20:06;14.20;99.90
24085;DHT22;12268;52.110;5.548;2023-04-24T05:22:32;14.30;99.90
24085;DHT22;12268;52.110;5.548;2023-04-24T05:24:58;14.30;99.90
24085;DHT22;12268;52.110;5.548;2023-04-24T05:27:24;14.20;99.90
24085;DHT22;12268;52.110;5.548;2023-04-24T05:29:50;14.20;99.90
24085;DHT22;12268;52.110;5.548;2023-04-24T05:32:15;14.20;99.90
24085;DHT22;12268;52.110;5.548;2023-04-24T05:34:41;14.00;99.90
24085;DHT22;12268;52.110;5.548;2023-04-24T05:37:06;14.10;99.90
24085;DHT22;12268;52.110;5.548;2023-04-24T05:39:35;14.00;99.90
24085;DHT22;12268;52.110;5.548;2023-04-24T05:42:01;14.00;99.90
24085;DHT22;12268;52.110;5.548;2023-04-24T05:44:27;13.90;99.90
24085;DHT22;12268;52.110;5.548;2023-04-24T05:46:52;13.80;99.90
24085;DHT22;12268;52.110;5.548;2023-04-24T05:49:18;13.80;99.90
24085;DHT22;12268;52.110;5.548;2023-04-24T05:51:43;13.80;99.90
24085;DHT22;12268;52.110;5.548;2023-04-24T05:54:09;13.80;99.90
24085;DHT22;12268;52.110;5.548;2023-04-24T05:56:37;13.70;99.90
24085;DHT22;12268;52.110;5.548;2023-04-24T05:59:03;13.70;99.90
24085;DHT22;12268;52.110;5.548;2023-04-24T06:01:29;13.60;99.90
24085;DHT22;12268;52.110;5.548;2023-04-24T06:03:55;13.70;99.90
24085;DHT22;12268;52.110;5.548;2023-04-24T06:06:20;13.70;99.90
24085;DHT22;12268;52.110;5.548;2023-04-24T06:08:46;13.70;99.90
24085;DHT22;12268;52.110;5.548;2023-04-24T06:11:11;13.70;99.90
24085;DHT22;12268;52.110;5.548;2023-04-24T06:13:37;13.60;99.90
24085;DHT22;12268;52.110;5.548;2023-04-24T06:16:02;13.50;99.90
24085;DHT22;12268;52.110;5.548;2023-04-24T06:18:28;13.40;99.90
24085;DHT22;12268;52.110;5.548;2023-04-24T06:20:53;13.20;99.90
24085;DHT22;12268;52.110;5.548;2023-04-24T06:23:20;13.00;99.90
24085;DHT22;12268;52.110;5.548;2023-04-24T06:25:46;13.00;99.90
24085;DHT22;12268;52.110;5.548;2023-04-24T06:28:12;13.00;99.90
24085;DHT22;12268;52.110;5.548;2023-04-24T06:30:38;13.10;99.90
24085;DHT22;12268;52.110;5.548;2023-04-24T06:33:03;13.10;99.90
24085;DHT22;12268;52.110;5.548;2023-04-24T06:35:29;13.20;99.90
24085;DHT22;12268;52.110;5.548;2023-04-24T06:37:54;13.30;99.90
24085;DHT22;12268;52.110;5.548;2023-04-24T06:40:21;13.30;99.90
24085;DHT22;12268;52.110;5.548;2023-04-24T06:42:47;13.40;99.90
24085;DHT22;12268;52.110;5.548;2023-04-24T06:45:13;13.40;99.90
24085;DHT22;12268;52.110;5.548;2023-04-24T06:47:38;13.40;99.90
24085;DHT22;12268;52.110;5.548;2023-04-24T06:50:04;13.30;99.90
24085;DHT22;12268;52.110;5.548;2023-04-24T06:52:30;13.10;99.90
24085;DHT22;12268;52.110;5.548;2023-04-24T06:55:02;12.90;99.90
24085;DHT22;12268;52.110;5.548;2023-04-24T06:57:28;12.70;99.90
24085;DHT22;12268;52.110;5.548;2023-04-24T06:59:54;12.40;99.90
24085;DHT22;12268;52.110;5.548;2023-04-24T07:02:19;12.30;99.90
24085;DHT22;12268;52.110;5.548;2023-04-24T07:04:45;12.30;99.90
24085;DHT22;12268;52.110;5.548;2023-04-24T07:07:12;12.30;99.90
24085;DHT22;12268;52.110;5.548;2023-04-24T07:09:39;12.10;99.90
24085;DHT22;12268;52.110;5.548;2023-04-24T07:12:10;12.00;99.90
24085;DHT22;12268;52.110;5.548;2023-04-24T07:14:36;12.00;99.90
24085;DHT22;12268;52.110;5.548;2023-04-24T07:17:03;12.00;99.90
24085;DHT22;12268;52.110;5.548;2023-04-24T07:19:29;12.10;99.90
24085;DHT22;12268;52.110;5.548;2023-04-24T07:21:55;12.20;99.90
24085;DHT22;12268;52.110;5.548;2023-04-24T07:24:20;12.20;99.90
24085;DHT22;12268;52.110;5.548;2023-04-24T07:26:46;12.30;99.90
24085;DHT22;12268;52.110;5.548;2023-04-24T07:29:12;12.40;99.90
24085;DHT22;12268;52.110;5.548;2023-04-24T07:31:38;12.30;99.90
24085;DHT22;12268;52.110;5.548;2023-04-24T07:34:06;12.30;99.90
24085;DHT22;12268;52.110;5.548;2023-04-24T07:36:31;12.40;99.90
24085;DHT22;12268;52.110;5.548;2023-04-24T07:38:57;12.30;99.90
24085;DHT22;12268;52.110;5.548;2023-04-24T07:41:23;12.20;99.90
24085;DHT22;12268;52.110;5.548;2023-04-24T07:43:49;12.10;99.90
24085;DHT22;12268;52.110;5.548;2023-04-24T07:46:15;12.20;99.90
24085;DHT22;12268;52.110;5.548;2023-04-24T07:48:40;12.10;99.90
24085;DHT22;12268;52.110;5.548;2023-04-24T07:51:06;12.20;99.90
24085;DHT22;12268;52.110;5.548;2023-04-24T07:53:31;12.10;99.90
24085;DHT22;12268;52.110;5.548;2023-04-24T07:55:57;12.10;99.90
24085;DHT22;12268;52.110;5.548;2023-04-24T07:58:23;12.00;99.90
24085;DHT22;12268;52.110;5.548;2023-04-24T08:00:48;12.10;99.90
24085;DHT22;12268;52.110;5.548;2023-04-24T08:03:14;12.10;99.90
24085;DHT22;12268;52.110;5.548;2023-04-24T08:05:40;12.20;99.90
24085;DHT22;12268;52.110;5.548;2023-04-24T08:08:07;12.40;99.90
24085;DHT22;12268;52.110;5.548;2023-04-24T08:10:32;12.50;99.90
24085;DHT22;12268;52.110;5.548;2023-04-24T08:12:58;12.60;99.90
24085;DHT22;12268;52.110;5.548;2023-04-24T08:15:23;12.70;99.90
24085;DHT22;12268;52.110;5.548;2023-04-24T08:17:49;12.80;99.90
24085;DHT22;12268;52.110;5.548;2023-04-24T08:20:15;12.90;99.90
24085;DHT22;12268;52.110;5.548;2023-04-24T08:22:42;12.90;99.90
24085;DHT22;12268;52.110;5.548;2023-04-24T08:25:08;13.00;99.90
24085;DHT22;12268;52.110;5.548;2023-04-24T08:27:34;13.00;99.90
24085;DHT22;12268;52.110;5.548;2023-04-24T08:30:02;12.90;99.90
24085;DHT22;12268;52.110;5.548;2023-04-24T08:32:27;12.60;99.90
24085;DHT22;12268;52.110;5.548;2023-04-24T08:34:54;12.40;99.90
24085;DHT22;12268;52.110;5.548;2023-04-24T08:37:22;12.30;99.90
24085;DHT22;12268;52.110;5.548;2023-04-24T08:39:47;12.20;99.90
24085;DHT22;12268;52.110;5.548;2023-04-24T08:42:13;12.30;99.90
24085;DHT22;12268;52.110;5.548;2023-04-24T08:44:40;12.20;99.90
24085;DHT22;12268;52.110;5.548;2023-04-24T08:47:07;12.10;99.90
24085;DHT22;12268;52.110;5.548;2023-04-24T08:49:33;12.10;99.90
24085;DHT22;12268;52.110;5.548;2023-04-24T08:52:02;12.10;99.90
24085;DHT22;12268;52.110;5.548;2023-04-24T08:54:28;12.20;99.90
24085;DHT22;12268;52.110;5.548;2023-04-24T08:56:54;12.30;99.90
24085;DHT22;12268;52.110;5.548;2023-04-24T08:59:21;12.40;99.90
24085;DHT22;12268;52.110;5.548;2023-04-24T09:01:48;12.50;99.90
24085;DHT22;12268;52.110;5.548;2023-04-24T09:04:16;12.60;99.90
24085;DHT22;12268;52.110;5.548;2023-04-24T09:06:45;12.80;99.90
24085;DHT22;12268;52.110;5.548;2023-04-24T09:09:11;13.00;99.90
24085;DHT22;12268;52.110;5.548;2023-04-24T09:11:37;13.00;99.90
24085;DHT22;12268;52.110;5.548;2023-04-24T09:14:03;13.00;99.90
24085;DHT22;12268;52.110;5.548;2023-04-24T09:16:29;13.00;99.90
24085;DHT22;12268;52.110;5.548;2023-04-24T09:18:55;12.90;99.90
24085;DHT22;12268;52.110;5.548;2023-04-24T09:21:22;13.00;99.90
24085;DHT22;12268;52.110;5.548;2023-04-24T09:23:58;13.20;99.90
24085;DHT22;12268;52.110;5.548;2023-04-24T09:26:25;13.10;99.90
24085;DHT22;12268;52.110;5.548;2023-04-24T09:28:50;12.90;99.90
24085;DHT22;12268;52.110;5.548;2023-04-24T09:31:18;12.90;99.90
24085;DHT22;12268;52.110;5.548;2023-04-24T09:34:04;12.90;99.90
24085;DHT22;12268;52.110;5.548;2023-04-24T09:36:35;13.00;99.90
24085;DHT22;12268;52.110;5.548;2023-04-24T09:39:06;12.90;99.90
24085;DHT22;12268;52.110;5.548;2023-04-24T09:41:33;13.00;99.90
24085;DHT22;12268;52.110;5.548;2023-04-24T09:44:19;13.40;99.90
24085;DHT22;12268;52.110;5.548;2023-04-24T09:46:56;13.60;99.90
24085;DHT22;12268;52.110;5.548;2023-04-24T09:49:24;14.20;99.90
24085;DHT22;12268;52.110;5.548;2023-04-24T09:51:50;14.60;99.90
24085;DHT22;12268;52.110;5.548;2023-04-24T09:54:18;14.60;99.90
24085;DHT22;12268;52.110;5.548;2023-04-24T09:56:47;14.50;99.90
24085;DHT22;12268;52.110;5.548;2023-04-24T09:59:18;14.70;99.90
24085;DHT22;12268;52.110;5.548;2023-04-24T10:01:44;15.00;99.90
24085;DHT22;12268;52.110;5.548;2023-04-24T10:04:21;15.10;99.90
24085;DHT22;12268;52.110;5.548;2023-04-24T10:06:49;15.20;99.90
24085;DHT22;12268;52.110;5.548;2023-04-24T10:09:16;15.00;99.90
24085;DHT22;12268;52.110;5.548;2023-04-24T10:11:43;14.60;99.90
24085;DHT22;12268;52.110;5.548;2023-04-24T10:14:23;14.50;99.90
24085;DHT22;12268;52.110;5.548;2023-04-24T13:25:56;13.30;99.90
24085;DHT22;12268;52.110;5.548;2023-04-24T13:28:23;13.50;99.90
24085;DHT22;12268;52.110;5.548;2023-04-24T13:30:50;13.70;99.90
24085;DHT22;12268;52.110;5.548;2023-04-24T13:33:15;14.00;99.90
24085;DHT22;12268;52.110;5.548;2023-04-24T13:35:41;14.30;99.90
24085;DHT22;12268;52.110;5.548;2023-04-24T13:38:06;14.70;99.90
24085;DHT22;12268;52.110;5.548;2023-04-24T13:40:32;15.10;99.90
24085;DHT22;12268;52.110;5.548;2023-04-24T13:42:58;16.10;99.90
24085;DHT22;12268;52.110;5.548;2023-04-24T13:45:24;16.70;99.90
24085;DHT22;12268;52.110;5.548;2023-04-24T13:47:49;16.50;99.90
24085;DHT22;12268;52.110;5.548;2023-04-24T13:50:15;16.30;99.90
24085;DHT22;12268;52.110;5.548;2023-04-24T13:52:40;15.90;99.90
24085;DHT22;12268;52.110;5.548;2023-04-24T13:55:06;15.30;99.90
24085;DHT22;12268;52.110;5.548;2023-04-24T13:57:32;15.00;99.90
24085;DHT22;12268;52.110;5.548;2023-04-24T13:59:58;14.70;99.90
24085;DHT22;12268;52.110;5.548;2023-04-24T14:02:27;14.80;99.90
24085;DHT22;12268;52.110;5.548;2023-04-24T14:04:53;14.80;99.90
24085;DHT22;12268;52.110;5.548;2023-04-24T14:07:18;15.00;99.90
24085;DHT22;12268;52.110;5.548;2023-04-24T14:09:43;15.00;99.90
24085;DHT22;12268;52.110;5.548;2023-04-24T14:12:09;15.10;99.90
24085;DHT22;12268;52.110;5.548;2023-04-24T14:14:35;15.30;99.90
24085;DHT22;12268;52.110;5.548;2023-04-24T14:17:00;15.90;99.90
24085;DHT22;12268;52.110;5.548;2023-04-24T14:19:26;16.40;99.90
24085;DHT22;12268;52.110;5.548;2023-04-24T14:21:51;16.70;99.90
24085;DHT22;12268;52.110;5.548;2023-04-24T14:24:18;16.90;99.90
24085;DHT22;12268;52.110;5.548;2023-04-24T14:26:43;16.50;99.90
24085;DHT22;12268;52.110;5.548;2023-04-24T14:29:09;15.90;99.90
24085;DHT22;12268;52.110;5.548;2023-04-24T14:31:35;15.40;99.90
24085;DHT22;12268;52.110;5.548;2023-04-24T14:34:00;15.20;99.90
24085;DHT22;12268;52.110;5.548;2023-04-24T14:36:26;14.90;99.90
24085;DHT22;12268;52.110;5.548;2023-04-24T14:38:51;14.80;99.90
24085;DHT22;12268;52.110;5.548;2023-04-24T14:41:17;14.80;99.90
24085;DHT22;12268;52.110;5.548;2023-04-24T14:43:42;14.90;99.90
24085;DHT22;12268;52.110;5.548;2023-04-24T14:46:08;14.80;99.90
24085;DHT22;12268;52.110;5.548;2023-04-24T14:48:33;14.70;99.90
24085;DHT22;12268;52.110;5.548;2023-04-24T14:50:59;14.50;99.90
24085;DHT22;12268;52.110;5.548;2023-04-24T14:53:24;14.30;99.90
24085;DHT22;12268;52.110;5.548;2023-04-24T14:55:50;14.50;99.90
24085;DHT22;12268;52.110;5.548;2023-04-24T14:58:15;14.80;99.90
24085;DHT22;12268;52.110;5.548;2023-04-24T15:00:41;15.10;99.90
24085;DHT22;12268;52.110;5.548;2023-04-24T15:03:06;15.30;99.90
24085;DHT22;12268;52.110;5.548;2023-04-24T15:05:32;15.20;99.90
24085;DHT22;12268;52.110;5.548;2023-04-24T15:07:58;15.20;99.90
24085;DHT22;12268;52.110;5.548;2023-04-24T15:10:23;15.00;99.90
24085;DHT22;12268;52.110;5.548;2023-04-24T15:12:50;15.10;99.90
24085;DHT22;12268;52.110;5.548;2023-04-24T15:15:16;15.20;99.90
24085;DHT22;12268;52.110;5.548;2023-04-24T15:17:42;15.60;99.90
24085;DHT22;12268;52.110;5.548;2023-04-24T15:20:08;15.90;99.90
24085;DHT22;12268;52.110;5.548;2023-04-24T15:22:33;15.60;99.90
24085;DHT22;12268;52.110;5.548;2023-04-24T15:24:59;15.40;99.90
24085;DHT22;12268;52.110;5.548;2023-04-24T15:27:25;14.80;99.90
24085;DHT22;12268;52.110;5.548;2023-04-24T15:29:50;14.20;99.90
24085;DHT22;12268;52.110;5.548;2023-04-24T15:32:16;13.80;99.90
24085;DHT22;12268;52.110;5.548;2023-04-24T15:34:41;13.70;99.90
24085;DHT22;12268;52.110;5.548;2023-04-24T15:37:07;13.70;99.90
24085;DHT22;12268;52.110;5.548;2023-04-24T15:39:33;13.60;99.90
24085;DHT22;12268;52.110;5.548;2023-04-24T15:41:59;13.50;99.90
24085;DHT22;12268;52.110;5.548;2023-04-24T15:44:25;13.90;99.90
24085;DHT22;12268;52.110;5.548;2023-04-24T15:46:51;13.90;99.90
24085;DHT22;12268;52.110;5.548;2023-04-24T15:49:17;14.10;99.90
24085;DHT22;12268;52.110;5.548;2023-04-24T15:51:42;15.40;99.90
24085;DHT22;12268;52.110;5.548;2023-04-24T15:54:08;16.90;99.90
24085;DHT22;12268;52.110;5.548;2023-04-24T15:56:33;18.00;99.90
24085;DHT22;12268;52.110;5.548;2023-04-24T15:59:01;19.20;99.90
24085;DHT22;12268;52.110;5.548;2023-04-24T16:01:27;20.10;99.90
24085;DHT22;12268;52.110;5.548;2023-04-24T16:03:53;20.40;99.90
24085;DHT22;12268;52.110;5.548;2023-04-24T16:06:18;19.80;99.90
24085;DHT22;12268;52.110;5.548;2023-04-24T16:08:44;19.00;99.90
24085;DHT22;12268;52.110;5.548;2023-04-24T16:11:09;18.20;99.90
24085;DHT22;12268;52.110;5.548;2023-04-24T16:13:35;17.80;99.90
24085;DHT22;12268;52.110;5.548;2023-04-24T16:16:00;17.30;99.90
24085;DHT22;12268;52.110;5.548;2023-04-24T16:18:26;16.80;99.90
24085;DHT22;12268;52.110;5.548;2023-04-24T16:20:51;15.70;99.90
24085;DHT22;12268;52.110;5.548;2023-04-24T16:23:17;15.00;99.90
24085;DHT22;12268;52.110;5.548;2023-04-24T16:25:42;14.50;99.90
24085;DHT22;12268;52.110;5.548;2023-04-24T16:28:08;14.30;99.90
24085;DHT22;12268;52.110;5.548;2023-04-24T16:30:34;14.00;99.90
24085;DHT22;12268;52.110;5.548;2023-04-24T16:33:00;13.70;99.90
24085;DHT22;12268;52.110;5.548;2023-04-24T16:35:29;13.50;99.90
24085;DHT22;12268;52.110;5.548;2023-04-24T16:37:55;13.50;99.90
24085;DHT22;12268;52.110;5.548;2023-04-24T16:40:20;13.50;99.90
24085;DHT22;12268;52.110;5.548;2023-04-24T16:42:46;13.60;99.90
24085;DHT22;12268;52.110;5.548;2023-04-24T16:45:12;13.70;99.90
24085;DHT22;12268;52.110;5.548;2023-04-24T16:47:38;13.80;99.90
24085;DHT22;12268;52.110;5.548;2023-04-24T16:50:04;13.90;99.90
24085;DHT22;12268;52.110;5.548;2023-04-24T16:52:30;13.80;99.90
24085;DHT22;12268;52.110;5.548;2023-04-24T16:54:56;13.50;99.90
24085;DHT22;12268;52.110;5.548;2023-04-24T16:57:21;13.30;99.90
24085;DHT22;12268;52.110;5.548;2023-04-24T16:59:47;13.30;99.90
24085;DHT22;12268;52.110;5.548;2023-04-24T17:02:13;13.20;99.90
24085;DHT22;12268;52.110;5.548;2023-04-24T17:04:38;13.30;99.90
24085;DHT22;12268;52.110;5.548;2023-04-24T17:07:04;13.60;99.90
24085;DHT22;12268;52.110;5.548;2023-04-24T17:09:29;13.50;99.90
24085;DHT22;12268;52.110;5.548;2023-04-24T17:11:55;13.40;99.90
24085;DHT22;12268;52.110;5.548;2023-04-24T17:14:20;13.40;99.90
24085;DHT22;12268;52.110;5.548;2023-04-24T17:16:48;13.30;99.90
24085;DHT22;12268;52.110;5.548;2023-04-24T17:19:13;13.30;99.90
24085;DHT22;12268;52.110;5.548;2023-04-24T17:21:39;13.20;99.90
24085;DHT22;12268;52.110;5.548;2023-04-24T17:24:05;13.10;99.90
24085;DHT22;12268;52.110;5.548;2023-04-24T17:26:31;13.00;99.90
24085;DHT22;12268;52.110;5.548;2023-04-24T17:28:56;12.90;99.90
24085;DHT22;12268;52.110;5.548;2023-04-24T17:31:22;12.70;99.90
24085;DHT22;12268;52.110;5.548;2023-04-24T17:33:48;12.70;99.90
24085;DHT22;12268;52.110;5.548;2023-04-24T17:36:13;12.60;99.90
24085;DHT22;12268;52.110;5.548;2023-04-24T17:38:39;12.70;99.90
24085;DHT22;12268;52.110;5.548;2023-04-24T17:41:04;12.70;99.90
24085;DHT22;12268;52.110;5.548;2023-04-24T17:43:31;12.70;99.90
24085;DHT22;12268;52.110;5.548;2023-04-24T17:45:56;12.70;99.90
24085;DHT22;12268;52.110;5.548;2023-04-24T17:48:23;12.80;99.90
24085;DHT22;12268;52.110;5.548;2023-04-24T17:50:49;13.00;99.90
24085;DHT22;12268;52.110;5.548;2023-04-24T17:53:16;13.10;99.90
24085;DHT22;12268;52.110;5.548;2023-04-24T17:55:43;13.10;99.90
24085;DHT22;12268;52.110;5.548;2023-04-24T17:58:09;12.90;99.90
24085;DHT22;12268;52.110;5.548;2023-04-24T18:00:35;12.60;99.90
24085;DHT22;12268;52.110;5.548;2023-04-24T18:03:01;12.30;99.90
24085;DHT22;12268;52.110;5.548;2023-04-24T18:05:28;12.20;99.90
24085;DHT22;12268;52.110;5.548;2023-04-24T18:07:54;12.20;99.90
24085;DHT22;12268;52.110;5.548;2023-04-24T18:10:20;12.20;99.90
24085;DHT22;12268;52.110;5.548;2023-04-24T18:12:46;12.10;99.90
24085;DHT22;12268;52.110;5.548;2023-04-24T18:15:12;12.00;99.90
24085;DHT22;12268;52.110;5.548;2023-04-24T18:17:38;12.00;99.90
24085;DHT22;12268;52.110;5.548;2023-04-24T18:20:04;12.10;99.90
24085;DHT22;12268;52.110;5.548;2023-04-24T18:22:29;12.00;99.90
24085;DHT22;12268;52.110;5.548;2023-04-24T18:24:55;12.10;99.90
24085;DHT22;12268;52.110;5.548;2023-04-24T18:27:21;12.10;99.90
24085;DHT22;12268;52.110;5.548;2023-04-24T18:29:50;12.10;99.90
24085;DHT22;12268;52.110;5.548;2023-04-24T18:32:16;12.10;99.90
24085;DHT22;12268;52.110;5.548;2023-04-24T18:34:41;12.00;99.90
24085;DHT22;12268;52.110;5.548;2023-04-24T18:37:07;11.90;99.90
24085;DHT22;12268;52.110;5.548;2023-04-24T18:39:32;12.10;99.90
24085;DHT22;12268;52.110;5.548;2023-04-24T18:41:58;12.10;99.90
24085;DHT22;12268;52.110;5.548;2023-04-24T18:44:24;11.90;99.90
24085;DHT22;12268;52.110;5.548;2023-04-24T18:46:51;11.90;99.90
24085;DHT22;12268;52.110;5.548;2023-04-24T18:49:16;11.90;99.90
24085;DHT22;12268;52.110;5.548;2023-04-24T18:51:42;12.00;99.90
24085;DHT22;12268;52.110;5.548;2023-04-24T18:54:07;12.10;99.90
24085;DHT22;12268;52.110;5.548;2023-04-24T18:56:33;11.90;99.90
24085;DHT22;12268;52.110;5.548;2023-04-24T18:58:58;11.80;99.90
24085;DHT22;12268;52.110;5.548;2023-04-24T19:01:24;11.90;99.90
24085;DHT22;12268;52.110;5.548;2023-04-24T19:03:49;11.90;99.90
24085;DHT22;12268;52.110;5.548;2023-04-24T19:06:15;12.00;99.90
24085;DHT22;12268;52.110;5.548;2023-04-24T19:08:41;12.10;99.90
24085;DHT22;12268;52.110;5.548;2023-04-24T19:11:09;12.10;99.90
24085;DHT22;12268;52.110;5.548;2023-04-24T19:13:35;12.00;99.90
24085;DHT22;12268;52.110;5.548;2023-04-24T19:16:00;11.90;99.90
24085;DHT22;12268;52.110;5.548;2023-04-24T19:18:26;11.80;99.90
24085;DHT22;12268;52.110;5.548;2023-04-24T19:20:54;11.70;99.90
24085;DHT22;12268;52.110;5.548;2023-04-24T19:23:19;11.50;99.90
24085;DHT22;12268;52.110;5.548;2023-04-24T19:25:46;11.60;99.90
24085;DHT22;12268;52.110;5.548;2023-04-24T19:28:11;11.70;99.90
24085;DHT22;12268;52.110;5.548;2023-04-24T19:30:37;11.70;99.90
24085;DHT22;12268;52.110;5.548;2023-04-24T19:33:03;11.60;99.90
24085;DHT22;12268;52.110;5.548;2023-04-24T19:35:28;11.60;99.90
24085;DHT22;12268;52.110;5.548;2023-04-24T19:37:54;11.60;99.90
24085;DHT22;12268;52.110;5.548;2023-04-24T19:40:20;11.50;99.90
24085;DHT22;12268;52.110;5.548;2023-04-24T19:42:45;11.40;99.90
24085;DHT22;12268;52.110;5.548;2023-04-24T19:45:11;11.40;99.90
24085;DHT22;12268;52.110;5.548;2023-04-24T19:47:37;11.20;99.90
24085;DHT22;12268;52.110;5.548;2023-04-24T19:50:02;11.20;99.90
24085;DHT22;12268;52.110;5.548;2023-04-24T19:52:28;11.20;99.90
24085;DHT22;12268;52.110;5.548;2023-04-24T19:54:54;11.20;99.90
24085;DHT22;12268;52.110;5.548;2023-04-24T19:57:19;11.30;99.90
24085;DHT22;12268;52.110;5.548;2023-04-24T19:59:45;11.30;99.90
24085;DHT22;12268;52.110;5.548;2023-04-24T20:02:10;11.50;99.90
24085;DHT22;12268;52.110;5.548;2023-04-24T20:04:37;11.60;99.90
24085;DHT22;12268;52.110;5.548;2023-04-24T20:07:02;11.50;99.90
24085;DHT22;12268;52.110;5.548;2023-04-24T20:09:28;11.40;99.90
24085;DHT22;12268;52.110;5.548;2023-04-24T20:11:53;11.20;99.90
24085;DHT22;12268;52.110;5.548;2023-04-24T20:14:19;11.10;99.90
24085;DHT22;12268;52.110;5.548;2023-04-24T20:16:45;11.20;99.90
24085;DHT22;12268;52.110;5.548;2023-04-24T20:19:10;11.20;99.90
24085;DHT22;12268;52.110;5.548;2023-04-24T20:21:36;11.10;99.90
24085;DHT22;12268;52.110;5.548;2023-04-24T20:24:01;11.10;99.90
24085;DHT22;12268;52.110;5.548;2023-04-24T20:26:28;11.00;99.90
24085;DHT22;12268;52.110;5.548;2023-04-24T20:28:54;11.00;99.90
24085;DHT22;12268;52.110;5.548;2023-04-24T20:31:19;11.00;99.90
24085;DHT22;12268;52.110;5.548;2023-04-24T20:33:45;11.10;99.90
24085;DHT22;12268;52.110;5.548;2023-04-24T20:36:11;11.30;99.90
24085;DHT22;12268;52.110;5.548;2023-04-24T20:38:36;11.40;99.90
24085;DHT22;12268;52.110;5.548;2023-04-24T20:41:02;11.60;99.90
24085;DHT22;12268;52.110;5.548;2023-04-24T20:43:28;11.80;99.90
24085;DHT22;12268;52.110;5.548;2023-04-24T20:45:53;11.90;99.90
24085;DHT22;12268;52.110;5.548;2023-04-24T20:48:19;11.90;99.90
24085;DHT22;12268;52.110;5.548;2023-04-24T20:50:44;11.80;99.90
24085;DHT22;12268;52.110;5.548;2023-04-24T20:53:10;11.70;99.90
24085;DHT22;12268;52.110;5.548;2023-04-24T20:55:36;11.70;99.90
24085;DHT22;12268;52.110;5.548;2023-04-24T20:58:01;11.60;99.90
24085;DHT22;12268;52.110;5.548;2023-04-24T21:00:28;11.60;99.90
24085;DHT22;12268;52.110;5.548;2023-04-24T21:02:53;11.70;99.90
24085;DHT22;12268;52.110;5.548;2023-04-24T21:05:19;11.90;99.90
24085;DHT22;12268;52.110;5.548;2023-04-24T21:07:45;11.80;99.90
24085;DHT22;12268;52.110;5.548;2023-04-24T21:10:10;11.80;99.90
24085;DHT22;12268;52.110;5.548;2023-04-24T21:12:38;11.90;99.90
24085;DHT22;12268;52.110;5.548;2023-04-24T21:15:04;11.80;99.90
24085;DHT22;12268;52.110;5.548;2023-04-24T21:17:30;11.90;99.90
24085;DHT22;12268;52.110;5.548;2023-04-24T21:19:56;11.80;99.90
24085;DHT22;12268;52.110;5.548;2023-04-24T21:22:21;11.60;99.90
24085;DHT22;12268;52.110;5.548;2023-04-24T21:24:47;11.50;99.90
24085;DHT22;12268;52.110;5.548;2023-04-24T21:27:13;11.50;99.90
24085;DHT22;12268;52.110;5.548;2023-04-24T21:29:39;11.40;99.90
24085;DHT22;12268;52.110;5.548;2023-04-24T21:32:04;11.30;99.90
24085;DHT22;12268;52.110;5.548;2023-04-24T21:34:30;11.40;99.90
24085;DHT22;12268;52.110;5.548;2023-04-24T21:36:55;11.60;99.90
24085;DHT22;12268;52.110;5.548;2023-04-24T21:39:21;11.80;99.90
24085;DHT22;12268;52.110;5.548;2023-04-24T21:41:46;11.80;99.90
24085;DHT22;12268;52.110;5.548;2023-04-24T21:44:12;11.80;99.90
24085;DHT22;12268;52.110;5.548;2023-04-24T21:46:40;11.90;99.90
24085;DHT22;12268;52.110;5.548;2023-04-24T21:49:07;11.90;99.90
24085;DHT22;12268;52.110;5.548;2023-04-24T21:51:32;11.90;99.90
24085;DHT22;12268;52.110;5.548;2023-04-24T21:53:58;11.90;99.90
24085;DHT22;12268;52.110;5.548;2023-04-24T21:56:23;11.90;99.90
24085;DHT22;12268;52.110;5.548;2023-04-24T21:58:49;11.90;99.90
24085;DHT22;12268;52.110;5.548;2023-04-24T22:01:14;11.80;99.90
24085;DHT22;12268;52.110;5.548;2023-04-24T22:03:40;11.60;99.90
24085;DHT22;12268;52.110;5.548;2023-04-24T22:06:06;11.60;99.90
24085;DHT22;12268;52.110;5.548;2023-04-24T22:08:31;11.50;99.90
24085;DHT22;12268;52.110;5.548;2023-04-24T22:10:57;11.20;99.90
24085;DHT22;12268;52.110;5.548;2023-04-24T22:13:23;11.20;99.90
24085;DHT22;12268;52.110;5.548;2023-04-24T22:15:48;11.30;99.90
24085;DHT22;12268;52.110;5.548;2023-04-24T22:18:15;11.40;99.90
24085;DHT22;12268;52.110;5.548;2023-04-24T22:20:43;11.50;99.90
24085;DHT22;12268;52.110;5.548;2023-04-24T22:23:09;11.40;99.90
24085;DHT22;12268;52.110;5.548;2023-04-24T22:25:35;11.30;99.90